sensor_id;sensor_type;location;lat;lon;timestamp;P1;durP1;ratioP1;P2;durP2;ratioP2
8435;SDS011;4255;48.730;9.156;2024-02-21T00:00:14;16.63;;;9.00;;
8435;SDS011;4255;48.730;9.156;2024-02-21T00:02:41;12.48;;;8.70;;
8435;SDS011;4255;48.730;9.156;2024-02-21T00:05:06;13.53;;;9.03;;
8435;SDS011;4255;48.730;9.156;2024-02-21T00:07:32;13.27;;;7.33;;
8435;SDS011;4255;48.730;9.156;2024-02-21T00:09:57;16.83;;;7.93;;
8435;SDS011;4255;48.730;9.156;2024-02-21T00:12:23;20.20;;;7.73;;
8435;SDS011;4255;48.730;9.156;2024-02-21T00:14:49;17.27;;;8.93;;
8435;SDS011;4255;48.730;9.156;2024-02-21T00:17:14;18.87;;;8.47;;
8435;SDS011;4255;48.730;9.156;2024-02-21T00:19:40;16.93;;;7.93;;
8435;SDS011;4255;48.730;9.156;2024-02-21T00:22:06;15.03;;;7.87;;
8435;SDS011;4255;48.730;9.156;2024-02-21T00:24:31;10.27;;;6.13;;
8435;SDS011;4255;48.730;9.156;2024-02-21T00:26:57;12.67;;;6.60;;
8435;SDS011;4255;48.730;9.156;2024-02-21T00:29:22;16.37;;;7.67;;
8435;SDS011;4255;48.730;9.156;2024-02-21T00:31:49;18.33;;;6.57;;
8435;SDS011;4255;48.730;9.156;2024-02-21T00:34:14;19.50;;;7.95;;
8435;SDS011;4255;48.730;9.156;2024-02-21T00:36:40;11.00;;;5.70;;
8435;SDS011;4255;48.730;9.156;2024-02-21T00:39:05;16.10;;;8.30;;
8435;SDS011;4255;48.730;9.156;2024-02-21T00:41:31;10.93;;;6.00;;
8435;SDS011;4255;48.730;9.156;2024-02-21T00:43:57;12.03;;;5.30;;
8435;SDS011;4255;48.730;9.156;2024-02-21T00:46:22;14.57;;;6.40;;
8435;SDS011;4255;48.730;9.156;2024-02-21T00:48:48;7.40;;;5.10;;
8435;SDS011;4255;48.730;9.156;2024-02-21T00:51:15;13.10;;;6.55;;
8435;SDS011;4255;48.730;9.156;2024-02-21T00:53:41;12.13;;;5.40;;
8435;SDS011;4255;48.730;9.156;2024-02-21T00:56:07;8.95;;;6.05;;
8435;SDS011;4255;48.730;9.156;2024-02-21T00:58:33;9.93;;;5.77;;
8435;SDS011;4255;48.730;9.156;2024-02-21T01:01:00;13.70;;;5.57;;
8435;SDS011;4255;48.730;9.156;2024-02-21T01:03:26;6.80;;;5.70;;
8435;SDS011;4255;48.730;9.156;2024-02-21T01:05:51;7.67;;;5.60;;
8435;SDS011;4255;48.730;9.156;2024-02-21T01:08:17;12.23;;;6.33;;
8435;SDS011;4255;48.730;9.156;2024-02-21T01:10:43;14.70;;;5.40;;
8435;SDS011;4255;48.730;9.156;2024-02-21T01:13:08;13.47;;;6.27;;
8435;SDS011;4255;48.730;9.156;2024-02-21T01:15:34;8.20;;;6.07;;
8435;SDS011;4255;48.730;9.156;2024-02-21T01:18:00;13.52;;;7.55;;
8435;SDS011;4255;48.730;9.156;2024-02-21T01:20:26;11.18;;;5.47;;
8435;SDS011;4255;48.730;9.156;2024-02-21T01:22:52;14.53;;;6.60;;
8435;SDS011;4255;48.730;9.156;2024-02-21T01:25:17;7.90;;;5.50;;
8435;SDS011;4255;48.730;9.156;2024-02-21T01:27:43;9.20;;;5.10;;
8435;SDS011;4255;48.730;9.156;2024-02-21T01:30:08;32.27;;;6.33;;
8435;SDS011;4255;48.730;9.156;2024-02-21T01:32:35;10.98;;;5.65;;
8435;SDS011;4255;48.730;9.156;2024-02-21T01:35:01;12.63;;;5.60;;
8435;SDS011;4255;48.730;9.156;2024-02-21T01:37:27;6.67;;;4.67;;
8435;SDS011;4255;48.730;9.156;2024-02-21T01:39:52;13.60;;;5.80;;
8435;SDS011;4255;48.730;9.156;2024-02-21T01:42:18;11.43;;;5.40;;
8435;SDS011;4255;48.730;9.156;2024-02-21T01:44:44;8.43;;;4.60;;
8435;SDS011;4255;48.730;9.156;2024-02-21T01:47:10;7.90;;;5.87;;
8435;SDS011;4255;48.730;9.156;2024-02-21T01:49:38;8.88;;;5.60;;
8435;SDS011;4255;48.730;9.156;2024-02-21T01:52:08;10.57;;;5.20;;
8435;SDS011;4255;48.730;9.156;2024-02-21T01:54:35;9.82;;;5.45;;
8435;SDS011;4255;48.730;9.156;2024-02-21T01:57:01;13.17;;;4.80;;
8435;SDS011;4255;48.730;9.156;2024-02-21T01:59:26;9.40;;;4.83;;
8435;SDS011;4255;48.730;9.156;2024-02-21T02:01:52;11.33;;;5.67;;
8435;SDS011;4255;48.730;9.156;2024-02-21T02:04:20;7.05;;;5.60;;
8435;SDS011;4255;48.730;9.156;2024-02-21T02:06:46;7.60;;;5.90;;
8435;SDS011;4255;48.730;9.156;2024-02-21T02:09:11;7.77;;;5.23;;
8435;SDS011;4255;48.730;9.156;2024-02-21T02:11:37;5.50;;;5.00;;
8435;SDS011;4255;48.730;9.156;2024-02-21T02:14:02;19.03;;;6.27;;
8435;SDS011;4255;48.730;9.156;2024-02-21T02:16:28;12.27;;;4.90;;
8435;SDS011;4255;48.730;9.156;2024-02-21T02:18:54;9.87;;;5.80;;
8435;SDS011;4255;48.730;9.156;2024-02-21T02:21:36;12.90;;;5.63;;
8435;SDS011;4255;48.730;9.156;2024-02-21T02:24:05;11.93;;;5.00;;
8435;SDS011;4255;48.730;9.156;2024-02-21T02:26:31;8.35;;;4.78;;
8435;SDS011;4255;48.730;9.156;2024-02-21T02:28:57;11.40;;;4.67;;
8435;SDS011;4255;48.730;9.156;2024-02-21T02:31:22;13.77;;;6.30;;
8435;SDS011;4255;48.730;9.156;2024-02-21T02:33:48;8.20;;;5.83;;
8435;SDS011;4255;48.730;9.156;2024-02-21T02:36:14;7.60;;;4.70;;
8435;SDS011;4255;48.730;9.156;2024-02-21T02:38:39;6.40;;;5.60;;
8435;SDS011;4255;48.730;9.156;2024-02-21T02:41:05;10.43;;;5.97;;
8435;SDS011;4255;48.730;9.156;2024-02-21T02:43:30;9.87;;;5.40;;
8435;SDS011;4255;48.730;9.156;2024-02-21T02:45:56;8.03;;;5.13;;
8435;SDS011;4255;48.730;9.156;2024-02-21T02:48:22;12.80;;;5.00;;
8435;SDS011;4255;48.730;9.156;2024-02-21T02:50:48;15.83;;;5.30;;
8435;SDS011;4255;48.730;9.156;2024-02-21T02:53:14;5.70;;;5.15;;
8435;SDS011;4255;48.730;9.156;2024-02-21T02:55:40;8.40;;;5.60;;
8435;SDS011;4255;48.730;9.156;2024-02-21T02:58:05;9.57;;;5.13;;
8435;SDS011;4255;48.730;9.156;2024-02-21T03:00:31;7.67;;;4.97;;
8435;SDS011;4255;48.730;9.156;2024-02-21T03:03:01;7.82;;;4.85;;
8435;SDS011;4255;48.730;9.156;2024-02-21T03:05:28;5.85;;;5.15;;
8435;SDS011;4255;48.730;9.156;2024-02-21T03:07:54;7.27;;;5.13;;
8435;SDS011;4255;48.730;9.156;2024-02-21T03:10:20;11.33;;;4.70;;
8435;SDS011;4255;48.730;9.156;2024-02-21T03:12:46;12.20;;;5.20;;
8435;SDS011;4255;48.730;9.156;2024-02-21T03:15:12;11.38;;;5.55;;
8435;SDS011;4255;48.730;9.156;2024-02-21T03:17:39;8.43;;;4.97;;
8435;SDS011;4255;48.730;9.156;2024-02-21T03:20:05;14.32;;;4.78;;
8435;SDS011;4255;48.730;9.156;2024-02-21T03:22:34;5.95;;;4.70;;
8435;SDS011;4255;48.730;9.156;2024-02-21T03:25:00;7.93;;;5.07;;
8435;SDS011;4255;48.730;9.156;2024-02-21T03:27:26;13.73;;;5.30;;
8435;SDS011;4255;48.730;9.156;2024-02-21T03:29:52;10.57;;;4.87;;
8435;SDS011;4255;48.730;9.156;2024-02-21T03:32:17;11.80;;;5.20;;
8435;SDS011;4255;48.730;9.156;2024-02-21T03:34:43;11.00;;;5.00;;
8435;SDS011;4255;48.730;9.156;2024-02-21T03:37:08;12.70;;;5.67;;
8435;SDS011;4255;48.730;9.156;2024-02-21T03:39:34;8.73;;;5.50;;
8435;SDS011;4255;48.730;9.156;2024-02-21T03:42:00;8.50;;;4.90;;
8435;SDS011;4255;48.730;9.156;2024-02-21T03:44:29;10.38;;;5.22;;
8435;SDS011;4255;48.730;9.156;2024-02-21T03:46:58;11.95;;;4.97;;
8435;SDS011;4255;48.730;9.156;2024-02-21T03:49:25;13.45;;;5.15;;
8435;SDS011;4255;48.730;9.156;2024-02-21T03:51:51;9.40;;;4.90;;
8435;SDS011;4255;48.730;9.156;2024-02-21T03:54:16;11.50;;;4.97;;
8435;SDS011;4255;48.730;9.156;2024-02-21T03:56:42;8.90;;;5.07;;
8435;SDS011;4255;48.730;9.156;2024-02-21T03:59:07;12.33;;;5.43;;
8435;SDS011;4255;48.730;9.156;2024-02-21T04:01:36;8.63;;;4.87;;
8435;SDS011;4255;48.730;9.156;2024-02-21T04:04:02;12.45;;;5.00;;
8435;SDS011;4255;48.730;9.156;2024-02-21T04:06:28;5.93;;;4.40;;
8435;SDS011;4255;48.730;9.156;2024-02-21T04:08:53;5.73;;;4.77;;
8435;SDS011;4255;48.730;9.156;2024-02-21T04:11:19;6.77;;;5.33;;
8435;SDS011;4255;48.730;9.156;2024-02-21T04:13:45;6.57;;;4.70;;
8435;SDS011;4255;48.730;9.156;2024-02-21T04:16:13;10.35;;;5.50;;
8435;SDS011;4255;48.730;9.156;2024-02-21T04:18:39;9.60;;;4.90;;
8435;SDS011;4255;48.730;9.156;2024-02-21T04:21:05;15.27;;;5.23;;
8435;SDS011;4255;48.730;9.156;2024-02-21T04:23:31;10.10;;;4.70;;
8435;SDS011;4255;48.730;9.156;2024-02-21T04:25:56;8.80;;;4.50;;
8435;SDS011;4255;48.730;9.156;2024-02-21T04:28:22;6.23;;;4.33;;
8435;SDS011;4255;48.730;9.156;2024-02-21T04:30:47;7.83;;;5.37;;
8435;SDS011;4255;48.730;9.156;2024-02-21T04:33:13;11.37;;;4.67;;
8435;SDS011;4255;48.730;9.156;2024-02-21T04:35:38;4.97;;;4.50;;
8435;SDS011;4255;48.730;9.156;2024-02-21T04:38:04;11.93;;;5.10;;
8435;SDS011;4255;48.730;9.156;2024-02-21T04:40:30;9.13;;;4.80;;
8435;SDS011;4255;48.730;9.156;2024-02-21T04:42:56;9.63;;;4.90;;
8435;SDS011;4255;48.730;9.156;2024-02-21T04:45:22;7.45;;;4.25;;
8435;SDS011;4255;48.730;9.156;2024-02-21T04:47:48;10.43;;;4.70;;
8435;SDS011;4255;48.730;9.156;2024-02-21T04:50:13;8.70;;;4.33;;
8435;SDS011;4255;48.730;9.156;2024-02-21T04:52:39;9.03;;;4.53;;
8435;SDS011;4255;48.730;9.156;2024-02-21T04:55:05;6.40;;;4.50;;
8435;SDS011;4255;48.730;9.156;2024-02-21T04:57:31;8.23;;;4.65;;
8435;SDS011;4255;48.730;9.156;2024-02-21T04:59:57;5.57;;;4.00;;
8435;SDS011;4255;48.730;9.156;2024-02-21T05:02:22;13.00;;;4.93;;
8435;SDS011;4255;48.730;9.156;2024-02-21T05:04:49;12.75;;;5.00;;
8435;SDS011;4255;48.730;9.156;2024-02-21T05:07:15;4.85;;;3.90;;
8435;SDS011;4255;48.730;9.156;2024-02-21T05:09:44;10.93;;;4.50;;
8435;SDS011;4255;48.730;9.156;2024-02-21T05:12:09;6.22;;;4.90;;
8435;SDS011;4255;48.730;9.156;2024-02-21T05:14:35;7.30;;;4.63;;
8435;SDS011;4255;48.730;9.156;2024-02-21T05:17:01;10.20;;;4.30;;
8435;SDS011;4255;48.730;9.156;2024-02-21T05:19:26;8.37;;;4.07;;
8435;SDS011;4255;48.730;9.156;2024-02-21T05:21:52;8.57;;;4.50;;
8435;SDS011;4255;48.730;9.156;2024-02-21T05:24:17;9.20;;;4.57;;
8435;SDS011;4255;48.730;9.156;2024-02-21T05:26:43;9.20;;;4.70;;
8435;SDS011;4255;48.730;9.156;2024-02-21T05:29:08;7.73;;;4.33;;
8435;SDS011;4255;48.730;9.156;2024-02-21T05:31:54;7.20;;;4.30;;
8435;SDS011;4255;48.730;9.156;2024-02-21T05:34:24;5.82;;;4.38;;
8435;SDS011;4255;48.730;9.156;2024-02-21T05:36:50;6.03;;;4.55;;
8435;SDS011;4255;48.730;9.156;2024-02-21T05:39:17;5.70;;;4.53;;
8435;SDS011;4255;48.730;9.156;2024-02-21T05:41:43;12.30;;;5.90;;
8435;SDS011;4255;48.730;9.156;2024-02-21T05:44:08;5.77;;;5.23;;
8435;SDS011;4255;48.730;9.156;2024-02-21T05:46:35;8.90;;;7.00;;
8435;SDS011;4255;48.730;9.156;2024-02-21T05:49:01;12.07;;;7.17;;
8435;SDS011;4255;48.730;9.156;2024-02-21T05:51:26;8.00;;;6.77;;
8435;SDS011;4255;48.730;9.156;2024-02-21T05:53:52;17.13;;;5.93;;
8435;SDS011;4255;48.730;9.156;2024-02-21T05:56:17;9.80;;;5.77;;
8435;SDS011;4255;48.730;9.156;2024-02-21T05:58:44;5.85;;;5.20;;
8435;SDS011;4255;48.730;9.156;2024-02-21T06:01:10;12.40;;;5.93;;
8435;SDS011;4255;48.730;9.156;2024-02-21T06:03:36;9.85;;;5.60;;
8435;SDS011;4255;48.730;9.156;2024-02-21T06:06:02;10.03;;;4.40;;
8435;SDS011;4255;48.730;9.156;2024-02-21T06:08:29;10.57;;;5.78;;
8435;SDS011;4255;48.730;9.156;2024-02-21T06:10:55;10.50;;;6.07;;
8435;SDS011;4255;48.730;9.156;2024-02-21T06:13:21;4.93;;;3.80;;
8435;SDS011;4255;48.730;9.156;2024-02-21T06:15:48;12.90;;;4.38;;
8435;SDS011;4255;48.730;9.156;2024-02-21T06:18:15;8.55;;;5.40;;
8435;SDS011;4255;48.730;9.156;2024-02-21T06:20:42;18.00;;;5.35;;
8435;SDS011;4255;48.730;9.156;2024-02-21T06:23:08;10.05;;;5.90;;
8435;SDS011;4255;48.730;9.156;2024-02-21T06:25:34;11.00;;;5.77;;
8435;SDS011;4255;48.730;9.156;2024-02-21T06:27:59;14.47;;;7.43;;
8435;SDS011;4255;48.730;9.156;2024-02-21T06:30:25;11.00;;;6.10;;
8435;SDS011;4255;48.730;9.156;2024-02-21T06:32:51;10.05;;;5.43;;
8435;SDS011;4255;48.730;9.156;2024-02-21T06:35:17;22.93;;;11.10;;
8435;SDS011;4255;48.730;9.156;2024-02-21T06:37:43;11.77;;;6.07;;
8435;SDS011;4255;48.730;9.156;2024-02-21T06:40:10;17.13;;;7.07;;
8435;SDS011;4255;48.730;9.156;2024-02-21T06:42:36;13.93;;;5.10;;
8435;SDS011;4255;48.730;9.156;2024-02-21T06:45:01;10.17;;;5.67;;
8435;SDS011;4255;48.730;9.156;2024-02-21T06:47:27;13.37;;;6.73;;
8435;SDS011;4255;48.730;9.156;2024-02-21T06:49:53;9.97;;;7.53;;
8435;SDS011;4255;48.730;9.156;2024-02-21T06:52:18;7.73;;;4.97;;
8435;SDS011;4255;48.730;9.156;2024-02-21T06:54:47;6.25;;;4.75;;
8435;SDS011;4255;48.730;9.156;2024-02-21T06:57:13;7.77;;;5.40;;
8435;SDS011;4255;48.730;9.156;2024-02-21T06:59:40;14.07;;;7.15;;
8435;SDS011;4255;48.730;9.156;2024-02-21T07:02:06;11.82;;;5.43;;
8435;SDS011;4255;48.730;9.156;2024-02-21T07:04:32;8.43;;;5.38;;
8435;SDS011;4255;48.730;9.156;2024-02-21T07:06:58;8.57;;;4.43;;
8435;SDS011;4255;48.730;9.156;2024-02-21T07:09:24;4.73;;;4.17;;
8435;SDS011;4255;48.730;9.156;2024-02-21T07:11:50;10.73;;;6.27;;
8435;SDS011;4255;48.730;9.156;2024-02-21T07:14:15;14.80;;;7.10;;
8435;SDS011;4255;48.730;9.156;2024-02-21T07:16:41;9.20;;;4.50;;
8435;SDS011;4255;48.730;9.156;2024-02-21T07:19:06;14.27;;;5.00;;
8435;SDS011;4255;48.730;9.156;2024-02-21T07:21:32;6.23;;;4.73;;
8435;SDS011;4255;48.730;9.156;2024-02-21T07:23:58;9.67;;;5.37;;
8435;SDS011;4255;48.730;9.156;2024-02-21T07:26:23;5.37;;;4.77;;
8435;SDS011;4255;48.730;9.156;2024-02-21T07:28:49;8.37;;;4.23;;
8435;SDS011;4255;48.730;9.156;2024-02-21T07:31:15;6.87;;;5.00;;
8435;SDS011;4255;48.730;9.156;2024-02-21T07:33:40;10.77;;;5.50;;
8435;SDS011;4255;48.730;9.156;2024-02-21T07:36:07;5.27;;;4.40;;
8435;SDS011;4255;48.730;9.156;2024-02-21T07:38:35;6.45;;;4.47;;
8435;SDS011;4255;48.730;9.156;2024-02-21T07:41:01;9.20;;;4.30;;
8435;SDS011;4255;48.730;9.156;2024-02-21T07:43:26;10.03;;;5.33;;
8435;SDS011;4255;48.730;9.156;2024-02-21T07:45:52;12.03;;;5.03;;
8435;SDS011;4255;48.730;9.156;2024-02-21T07:48:18;13.02;;;4.35;;
8435;SDS011;4255;48.730;9.156;2024-02-21T07:50:44;8.27;;;4.13;;
8435;SDS011;4255;48.730;9.156;2024-02-21T07:53:09;8.43;;;4.03;;
8435;SDS011;4255;48.730;9.156;2024-02-21T07:55:35;9.73;;;4.20;;
8435;SDS011;4255;48.730;9.156;2024-02-21T07:58:01;13.97;;;4.50;;
8435;SDS011;4255;48.730;9.156;2024-02-21T08:00:26;9.43;;;3.87;;
8435;SDS011;4255;48.730;9.156;2024-02-21T08:02:52;14.53;;;4.50;;
8435;SDS011;4255;48.730;9.156;2024-02-21T08:05:18;4.83;;;3.90;;
8435;SDS011;4255;48.730;9.156;2024-02-21T08:07:43;14.20;;;4.87;;
8435;SDS011;4255;48.730;9.156;2024-02-21T08:10:09;10.63;;;4.80;;
8435;SDS011;4255;48.730;9.156;2024-02-21T08:12:35;7.40;;;4.60;;
8435;SDS011;4255;48.730;9.156;2024-02-21T08:15:00;7.05;;;5.60;;
8435;SDS011;4255;48.730;9.156;2024-02-21T08:17:28;12.05;;;5.20;;
8435;SDS011;4255;48.730;9.156;2024-02-21T08:19:54;17.43;;;5.17;;
8435;SDS011;4255;48.730;9.156;2024-02-21T08:22:19;5.57;;;3.63;;
8435;SDS011;4255;48.730;9.156;2024-02-21T08:24:45;12.93;;;3.97;;
8435;SDS011;4255;48.730;9.156;2024-02-21T08:27:11;8.60;;;3.80;;
8435;SDS011;4255;48.730;9.156;2024-02-21T08:29:36;15.83;;;5.00;;
8435;SDS011;4255;48.730;9.156;2024-02-21T08:32:02;14.53;;;6.17;;
8435;SDS011;4255;48.730;9.156;2024-02-21T08:34:28;8.47;;;5.30;;
8435;SDS011;4255;48.730;9.156;2024-02-21T08:36:55;19.00;;;8.40;;
8435;SDS011;4255;48.730;9.156;2024-02-21T08:39:21;5.23;;;3.73;;
8435;SDS011;4255;48.730;9.156;2024-02-21T08:41:46;5.20;;;3.90;;
8435;SDS011;4255;48.730;9.156;2024-02-21T08:44:12;6.80;;;4.13;;
8435;SDS011;4255;48.730;9.156;2024-02-21T08:46:37;17.43;;;4.40;;
8435;SDS011;4255;48.730;9.156;2024-02-21T08:49:05;8.05;;;3.90;;
8435;SDS011;4255;48.730;9.156;2024-02-21T08:51:31;9.00;;;4.30;;
8435;SDS011;4255;48.730;9.156;2024-02-21T08:53:58;10.10;;;3.70;;
8435;SDS011;4255;48.730;9.156;2024-02-21T08:56:25;11.07;;;4.47;;
8435;SDS011;4255;48.730;9.156;2024-02-21T08:58:50;8.87;;;4.37;;
8435;SDS011;4255;48.730;9.156;2024-02-21T09:01:16;6.43;;;3.70;;
8435;SDS011;4255;48.730;9.156;2024-02-21T09:03:41;9.77;;;3.67;;
8435;SDS011;4255;48.730;9.156;2024-02-21T09:06:09;5.65;;;3.60;;
8435;SDS011;4255;48.730;9.156;2024-02-21T09:08:35;5.05;;;3.53;;
8435;SDS011;4255;48.730;9.156;2024-02-21T09:11:01;8.40;;;3.80;;
8435;SDS011;4255;48.730;9.156;2024-02-21T09:13:27;5.28;;;3.15;;
8435;SDS011;4255;48.730;9.156;2024-02-21T09:15:52;4.22;;;3.80;;
8435;SDS011;4255;48.730;9.156;2024-02-21T09:18:18;6.80;;;3.40;;
8435;SDS011;4255;48.730;9.156;2024-02-21T09:20:44;16.37;;;4.07;;
8435;SDS011;4255;48.730;9.156;2024-02-21T09:23:10;4.67;;;3.23;;
8435;SDS011;4255;48.730;9.156;2024-02-21T09:25:36;12.00;;;3.60;;
8435;SDS011;4255;48.730;9.156;2024-02-21T09:28:02;9.43;;;3.90;;
8435;SDS011;4255;48.730;9.156;2024-02-21T09:30:28;9.40;;;4.40;;
8435;SDS011;4255;48.730;9.156;2024-02-21T09:32:53;4.73;;;3.30;;
8435;SDS011;4255;48.730;9.156;2024-02-21T09:35:19;4.77;;;2.90;;
8435;SDS011;4255;48.730;9.156;2024-02-21T09:37:48;8.02;;;3.40;;
8435;SDS011;4255;48.730;9.156;2024-02-21T09:40:15;8.02;;;3.33;;
8435;SDS011;4255;48.730;9.156;2024-02-21T09:42:42;5.78;;;3.40;;
8435;SDS011;4255;48.730;9.156;2024-02-21T09:45:13;6.22;;;3.50;;
8435;SDS011;4255;48.730;9.156;2024-02-21T09:50:40;3.28;;;2.88;;
8435;SDS011;4255;48.730;9.156;2024-02-21T09:53:06;5.38;;;2.92;;
8435;SDS011;4255;48.730;9.156;2024-02-21T09:55:32;4.53;;;3.08;;
8435;SDS011;4255;48.730;9.156;2024-02-21T09:58:00;4.30;;;2.90;;
8435;SDS011;4255;48.730;9.156;2024-02-21T10:00:27;5.30;;;3.50;;
8435;SDS011;4255;48.730;9.156;2024-02-21T10:02:53;4.60;;;3.07;;
8435;SDS011;4255;48.730;9.156;2024-02-21T10:05:19;6.00;;;3.03;;
8435;SDS011;4255;48.730;9.156;2024-02-21T10:07:45;2.63;;;2.33;;
8435;SDS011;4255;48.730;9.156;2024-02-21T10:10:11;5.55;;;3.10;;
8435;SDS011;4255;48.730;9.156;2024-02-21T10:12:47;9.17;;;3.37;;
8435;SDS011;4255;48.730;9.156;2024-02-21T10:15:20;7.65;;;3.70;;
8435;SDS011;4255;48.730;9.156;2024-02-21T10:17:47;8.18;;;3.60;;
8435;SDS011;4255;48.730;9.156;2024-02-21T10:20:13;3.30;;;2.53;;
8435;SDS011;4255;48.730;9.156;2024-02-21T10:22:40;3.45;;;3.10;;
8435;SDS011;4255;48.730;9.156;2024-02-21T10:25:09;4.90;;;2.60;;
8435;SDS011;4255;48.730;9.156;2024-02-21T10:27:38;6.43;;;2.80;;
8435;SDS011;4255;48.730;9.156;2024-02-21T10:30:05;7.07;;;2.67;;
8435;SDS011;4255;48.730;9.156;2024-02-21T10:32:32;4.87;;;2.90;;
8435;SDS011;4255;48.730;9.156;2024-02-21T10:35:03;5.50;;;3.80;;
8435;SDS011;4255;48.730;9.156;2024-02-21T10:37:29;5.95;;;3.78;;
8435;SDS011;4255;48.730;9.156;2024-02-21T10:39:56;4.97;;;3.23;;
8435;SDS011;4255;48.730;9.156;2024-02-21T10:42:22;4.90;;;3.17;;
8435;SDS011;4255;48.730;9.156;2024-02-21T10:44:51;4.07;;;2.83;;
8435;SDS011;4255;48.730;9.156;2024-02-21T10:47:19;6.93;;;2.87;;
8435;SDS011;4255;48.730;9.156;2024-02-21T10:49:49;3.53;;;2.60;;
8435;SDS011;4255;48.730;9.156;2024-02-21T10:55:03;5.43;;;2.70;;
8435;SDS011;4255;48.730;9.156;2024-02-21T10:57:34;8.43;;;3.30;;
8435;SDS011;4255;48.730;9.156;2024-02-21T11:00:02;6.63;;;3.30;;
8435;SDS011;4255;48.730;9.156;2024-02-21T11:02:33;4.53;;;3.00;;
8435;SDS011;4255;48.730;9.156;2024-02-21T11:04:59;6.23;;;2.90;;
8435;SDS011;4255;48.730;9.156;2024-02-21T11:07:28;5.17;;;2.80;;
8435;SDS011;4255;48.730;9.156;2024-02-21T11:09:54;6.40;;;3.00;;
8435;SDS011;4255;48.730;9.156;2024-02-21T11:12:20;3.60;;;3.30;;
8435;SDS011;4255;48.730;9.156;2024-02-21T11:14:47;3.73;;;2.87;;
8435;SDS011;4255;48.730;9.156;2024-02-21T11:17:16;7.70;;;4.00;;
8435;SDS011;4255;48.730;9.156;2024-02-21T11:19:42;6.77;;;3.77;;
8435;SDS011;4255;48.730;9.156;2024-02-21T11:22:15;3.03;;;2.40;;
8435;SDS011;4255;48.730;9.156;2024-02-21T11:24:42;4.97;;;2.83;;
8435;SDS011;4255;48.730;9.156;2024-02-21T11:27:15;3.00;;;2.43;;
8435;SDS011;4255;48.730;9.156;2024-02-21T11:29:56;9.13;;;2.50;;
8435;SDS011;4255;48.730;9.156;2024-02-21T11:32:23;6.23;;;3.37;;
8435;SDS011;4255;48.730;9.156;2024-02-21T11:35:03;9.07;;;2.80;;
8435;SDS011;4255;48.730;9.156;2024-02-21T11:37:30;6.20;;;3.03;;
8435;SDS011;4255;48.730;9.156;2024-02-21T11:40:02;2.43;;;2.23;;
8435;SDS011;4255;48.730;9.156;2024-02-21T11:42:28;2.50;;;2.20;;
8435;SDS011;4255;48.730;9.156;2024-02-21T11:44:58;5.13;;;2.50;;
8435;SDS011;4255;48.730;9.156;2024-02-21T11:47:25;3.53;;;2.17;;
8435;SDS011;4255;48.730;9.156;2024-02-21T11:49:53;4.20;;;2.70;;
8435;SDS011;4255;48.730;9.156;2024-02-21T11:52:21;5.77;;;2.53;;
8435;SDS011;4255;48.730;9.156;2024-02-21T11:54:49;2.70;;;2.50;;
8435;SDS011;4255;48.730;9.156;2024-02-21T11:57:16;5.83;;;2.37;;
8435;SDS011;4255;48.730;9.156;2024-02-21T11:59:43;4.67;;;3.17;;
8435;SDS011;4255;48.730;9.156;2024-02-21T12:02:09;9.70;;;2.70;;
8435;SDS011;4255;48.730;9.156;2024-02-21T12:04:35;3.47;;;2.57;;
8435;SDS011;4255;48.730;9.156;2024-02-21T12:07:01;6.57;;;2.37;;
8435;SDS011;4255;48.730;9.156;2024-02-21T12:09:29;3.10;;;1.90;;
8435;SDS011;4255;48.730;9.156;2024-02-21T12:11:58;4.00;;;2.43;;
8435;SDS011;4255;48.730;9.156;2024-02-21T12:14:25;6.33;;;2.23;;
8435;SDS011;4255;48.730;9.156;2024-02-21T12:16:53;3.03;;;2.23;;
8435;SDS011;4255;48.730;9.156;2024-02-21T12:19:19;2.30;;;2.10;;
8435;SDS011;4255;48.730;9.156;2024-02-21T12:21:45;3.77;;;3.10;;
8435;SDS011;4255;48.730;9.156;2024-02-21T12:24:17;2.20;;;2.10;;
8435;SDS011;4255;48.730;9.156;2024-02-21T12:26:46;3.27;;;2.27;;
8435;SDS011;4255;48.730;9.156;2024-02-21T12:29:12;2.57;;;2.37;;
8435;SDS011;4255;48.730;9.156;2024-02-21T12:31:38;18.40;;;2.70;;
8435;SDS011;4255;48.730;9.156;2024-02-21T12:34:04;6.17;;;2.40;;
8435;SDS011;4255;48.730;9.156;2024-02-21T12:36:33;3.07;;;2.50;;
8435;SDS011;4255;48.730;9.156;2024-02-21T12:38:59;2.80;;;1.93;;
8435;SDS011;4255;48.730;9.156;2024-02-21T12:41:26;2.60;;;2.17;;
8435;SDS011;4255;48.730;9.156;2024-02-21T12:43:52;5.33;;;2.40;;
8435;SDS011;4255;48.730;9.156;2024-02-21T12:46:18;2.30;;;1.80;;
8435;SDS011;4255;48.730;9.156;2024-02-21T12:48:44;5.23;;;2.17;;
8435;SDS011;4255;48.730;9.156;2024-02-21T12:51:09;3.97;;;2.40;;
8435;SDS011;4255;48.730;9.156;2024-02-21T12:53:35;4.43;;;2.57;;
8435;SDS011;4255;48.730;9.156;2024-02-21T12:56:01;2.43;;;2.23;;
8435;SDS011;4255;48.730;9.156;2024-02-21T12:58:26;6.30;;;2.80;;
8435;SDS011;4255;48.730;9.156;2024-02-21T13:00:53;3.00;;;2.17;;
8435;SDS011;4255;48.730;9.156;2024-02-21T13:03:19;7.87;;;2.20;;
8435;SDS011;4255;48.730;9.156;2024-02-21T13:05:46;2.30;;;2.10;;
8435;SDS011;4255;48.730;9.156;2024-02-21T13:08:13;3.23;;;2.50;;
8435;SDS011;4255;48.730;9.156;2024-02-21T13:10:38;6.93;;;2.77;;
8435;SDS011;4255;48.730;9.156;2024-02-21T13:13:04;3.83;;;2.00;;
8435;SDS011;4255;48.730;9.156;2024-02-21T13:15:30;3.20;;;2.33;;
8435;SDS011;4255;48.730;9.156;2024-02-21T13:17:56;3.57;;;2.00;;
8435;SDS011;4255;48.730;9.156;2024-02-21T13:20:22;2.97;;;2.20;;
8435;SDS011;4255;48.730;9.156;2024-02-21T13:22:48;6.33;;;2.30;;
8435;SDS011;4255;48.730;9.156;2024-02-21T13:25:14;8.43;;;2.10;;
8435;SDS011;4255;48.730;9.156;2024-02-21T13:27:43;2.23;;;2.00;;
8435;SDS011;4255;48.730;9.156;2024-02-21T13:30:09;2.10;;;1.93;;
8435;SDS011;4255;48.730;9.156;2024-02-21T13:32:35;2.50;;;1.90;;
8435;SDS011;4255;48.730;9.156;2024-02-21T13:35:01;2.27;;;2.17;;
8435;SDS011;4255;48.730;9.156;2024-02-21T13:37:28;2.50;;;2.30;;
8435;SDS011;4255;48.730;9.156;2024-02-21T13:39:53;2.33;;;2.17;;
8435;SDS011;4255;48.730;9.156;2024-02-21T13:42:19;2.60;;;1.80;;
8435;SDS011;4255;48.730;9.156;2024-02-21T13:44:45;2.60;;;2.07;;
8435;SDS011;4255;48.730;9.156;2024-02-21T13:47:14;4.40;;;2.30;;
8435;SDS011;4255;48.730;9.156;2024-02-21T13:49:40;3.37;;;2.63;;
8435;SDS011;4255;48.730;9.156;2024-02-21T13:52:06;2.07;;;1.87;;
8435;SDS011;4255;48.730;9.156;2024-02-21T13:54:34;3.87;;;2.93;;
8435;SDS011;4255;48.730;9.156;2024-02-21T13:57:00;2.00;;;1.90;;
8435;SDS011;4255;48.730;9.156;2024-02-21T13:59:27;2.53;;;2.30;;
8435;SDS011;4255;48.730;9.156;2024-02-21T14:01:53;2.57;;;2.00;;
8435;SDS011;4255;48.730;9.156;2024-02-21T14:04:19;2.13;;;1.60;;
8435;SDS011;4255;48.730;9.156;2024-02-21T14:06:45;3.73;;;1.83;;
8435;SDS011;4255;48.730;9.156;2024-02-21T14:09:10;2.40;;;2.30;;
8435;SDS011;4255;48.730;9.156;2024-02-21T14:11:37;2.33;;;2.10;;
8435;SDS011;4255;48.730;9.156;2024-02-21T14:14:04;4.77;;;2.10;;
8435;SDS011;4255;48.730;9.156;2024-02-21T14:16:29;2.63;;;2.27;;
8435;SDS011;4255;48.730;9.156;2024-02-21T14:18:55;2.63;;;1.80;;
8435;SDS011;4255;48.730;9.156;2024-02-21T14:21:21;2.47;;;1.73;;
8435;SDS011;4255;48.730;9.156;2024-02-21T14:23:46;3.53;;;2.30;;
8435;SDS011;4255;48.730;9.156;2024-02-21T14:26:12;2.90;;;2.07;;
8435;SDS011;4255;48.730;9.156;2024-02-21T14:28:39;2.30;;;2.10;;
8435;SDS011;4255;48.730;9.156;2024-02-21T14:31:05;2.20;;;2.00;;
8435;SDS011;4255;48.730;9.156;2024-02-21T14:33:34;2.33;;;2.23;;
8435;SDS011;4255;48.730;9.156;2024-02-21T14:36:00;3.57;;;2.00;;
8435;SDS011;4255;48.730;9.156;2024-02-21T14:38:26;5.50;;;1.90;;
8435;SDS011;4255;48.730;9.156;2024-02-21T14:40:52;2.30;;;2.03;;
8435;SDS011;4255;48.730;9.156;2024-02-21T14:43:18;2.90;;;2.10;;
8435;SDS011;4255;48.730;9.156;2024-02-21T14:45:46;3.13;;;2.00;;
8435;SDS011;4255;48.730;9.156;2024-02-21T14:48:12;1.97;;;1.87;;
8435;SDS011;4255;48.730;9.156;2024-02-21T14:50:38;3.87;;;2.03;;
8435;SDS011;4255;48.730;9.156;2024-02-21T14:53:04;2.90;;;2.07;;
8435;SDS011;4255;48.730;9.156;2024-02-21T14:55:30;3.20;;;2.40;;
8435;SDS011;4255;48.730;9.156;2024-02-21T14:57:55;5.97;;;2.60;;
8435;SDS011;4255;48.730;9.156;2024-02-21T15:00:21;2.60;;;1.90;;
8435;SDS011;4255;48.730;9.156;2024-02-21T15:02:54;3.13;;;2.90;;
8435;SDS011;4255;48.730;9.156;2024-02-21T15:05:20;10.73;;;6.40;;
8435;SDS011;4255;48.730;9.156;2024-02-21T15:07:45;5.03;;;3.97;;
8435;SDS011;4255;48.730;9.156;2024-02-21T15:10:11;4.57;;;3.00;;